Time;durP1;ratioP1;P1;durP2;ratioP2;P2;SDS_P1;SDS_P2;PMS_P1;PMS_P2;Temp;Humidity;BMP_temperature;BMP_pressure;BME280_temperature;BME280_humidity;BME280_pressure;Samples;Min_cycle;Max_cycle;Signal;HPM_P1;HPM_P2
2023/10/02 00:02:00;;;;;;;10.50;6.90;;;;;;;9.00;85.57;101217.34;109093;276;38605;-72
2023/10/02 00:04:37;;;;;;;14.30;8.10;;;;;;;8.99;85.79;101218.39;109036;277;38617;-72
2023/10/02 00:07:15;;;;;;;13.70;7.60;;;;;;;8.97;85.75;101215.64;108960;277;38253;-69
2023/10/02 00:09:50;;;;;;;13.30;7.10;;;;;;;8.97;85.86;101214.95;108986;277;38167;-70
2023/10/02 00:12:28;;;;;;;9.50;6.30;;;;;;;8.99;85.88;101212.30;108950;276;38875;-70
2023/10/02 00:15:13;;;;;;;11.90;7.20;;;;;;;9.02;86.07;101210.86;108984;277;38533;-70
2023/10/02 00:17:48;;;;;;;13.10;7.40;;;;;;;9.03;86.22;101208.05;108896;277;38571;-73
2023/10/02 00:20:22;;;;;;;12.00;8.10;;;;;;;9.04;86.41;101208.04;108854;276;175430;-70
2023/10/02 00:23:01;;;;;;;11.70;6.80;;;;;;;9.01;86.15;101210.69;108944;277;38442;-72
2023/10/02 00:25:51;;;;;;;16.50;8.20;;;;;;;8.98;86.10;101207.98;108909;277;38170;-69
2023/10/02 00:28:30;;;;;;;12.20;6.70;;;;;;;8.98;86.50;101209.19;108918;277;38262;-69
2023/10/02 00:31:05;;;;;;;9.30;6.90;;;;;;;9.01;86.60;101204.96;109034;277;38273;-70
2023/10/02 00:33:50;;;;;;;9.30;6.20;;;;;;;9.01;86.39;101204.60;108867;277;175537;-70
2023/10/02 00:36:33;;;;;;;12.40;7.60;;;;;;;9.00;86.47;101199.40;108990;277;38330;-70
2023/10/02 00:39:30;;;;;;;11.60;7.10;;;;;;;8.98;86.44;101194.04;109006;277;38270;-71
2023/10/02 00:42:25;;;;;;;11.80;7.30;;;;;;;8.97;86.52;101196.50;109003;277;38277;-70
2023/10/02 00:45:02;;;;;;;10.20;6.90;;;;;;;8.96;86.86;101190.95;109064;277;38636;-73
2023/10/02 00:47:42;;;;;;;12.00;7.20;;;;;;;9.00;86.90;101193.83;108943;277;38462;-71
2023/10/02 00:50:18;;;;;;;11.90;7.90;;;;;;;9.05;87.17;101195.14;108971;276;38416;-72
2023/10/02 00:53:00;;;;;;;12.90;8.50;;;;;;;9.08;87.28;101197.88;108986;277;39326;-73
2023/10/02 00:55:38;;;;;;;9.10;7.00;;;;;;;9.10;87.18;101196.95;109010;277;38259;-73
2023/10/02 00:58:15;;;;;;;11.70;7.20;;;;;;;9.11;87.14;101195.20;108976;277;40050;-70
2023/10/02 01:00:50;;;;;;;13.90;7.40;;;;;;;9.10;86.89;101195.92;109034;277;38213;-72
2023/10/02 01:03:25;;;;;;;11.00;7.20;;;;;;;9.09;86.90;101201.52;108997;276;38162;-73
2023/10/02 01:06:11;;;;;;;11.30;7.60;;;;;;;9.09;86.87;101205.67;108950;277;38294;-73
2023/10/02 01:08:49;;;;;;;12.90;7.50;;;;;;;9.04;86.77;101205.42;108998;277;38615;-71
2023/10/02 01:11:30;;;;;;;10.00;7.00;;;;;;;9.02;86.55;101210.15;108959;277;39563;-71
2023/10/02 01:14:10;;;;;;;12.00;7.40;;;;;;;9.01;86.75;101214.00;108860;273;175432;-73
2023/10/02 01:16:59;;;;;;;9.70;6.80;;;;;;;9.03;86.93;101216.75;108904;276;189818;-70
2023/10/02 01:19:57;;;;;;;15.40;8.30;;;;;;;9.04;87.01;101217.77;108932;277;38287;-71
2023/10/02 01:22:43;;;;;;;11.00;7.60;;;;;;;8.98;86.54;101217.02;108985;277;38529;-71
2023/10/02 01:25:23;;;;;;;12.80;7.20;;;;;;;8.91;86.69;101212.27;109041;277;38150;-72
2023/10/02 01:27:58;;;;;;;11.00;7.00;;;;;;;8.88;86.88;101209.89;109020;277;38222;-71
2023/10/02 01:30:38;;;;;;;10.70;7.10;;;;;;;8.89;87.21;101208.66;109006;277;38477;-73
2023/10/02 01:33:26;;;;;;;11.70;7.00;;;;;;;8.92;87.37;101208.95;109028;277;38475;-73
2023/10/02 01:36:31;;;;;;;11.60;7.70;;;;;;;8.96;87.33;101205.05;109007;277;39457;-70
2023/10/02 01:39:21;;;;;;;11.10;7.00;;;;;;;8.96;87.61;101199.46;108957;277;39055;-70
2023/10/02 01:42:05;;;;;;;12.80;7.60;;;;;;;8.95;87.48;101200.70;108919;277;38201;-72
2023/10/02 01:44:54;;;;;;;12.90;6.70;;;;;;;8.96;87.56;101199.98;108936;277;38718;-70
2023/10/02 01:47:41;;;;;;;9.50;7.00;;;;;;;9.00;88.01;101203.23;108911;277;38228;-73
2023/10/02 01:50:16;;;;;;;13.10;7.10;;;;;;;9.03;88.00;101209.45;109010;277;38510;-69
2023/10/02 01:52:55;;;;;;;12.30;7.50;;;;;;;9.01;87.85;101206.00;108984;277;38586;-73
2023/10/02 01:55:31;;;;;;;10.60;7.00;;;;;;;8.97;87.46;101213.73;109032;277;38285;-70
2023/10/02 01:58:17;;;;;;;11.90;7.00;;;;;;;8.97;87.74;101222.77;108952;277;38420;-71
2023/10/02 02:00:54;;;;;;;14.60;9.10;;;;;;;8.99;87.71;101224.65;108978;277;38819;-70
2023/10/02 02:03:29;;;;;;;13.80;8.30;;;;;;;9.03;87.87;101225.98;108967;277;38149;-70
2023/10/02 02:06:17;;;;;;;15.60;8.30;;;;;;;9.07;88.12;101225.91;109002;277;38823;-71
2023/10/02 02:09:00;;;;;;;14.50;8.20;;;;;;;9.13;88.30;101225.64;108964;277;38936;-70
2023/10/02 02:11:34;;;;;;;13.00;8.60;;;;;;;9.18;88.60;101227.62;109034;277;39373;-71
2023/10/02 02:14:10;;;;;;;13.20;7.90;;;;;;;9.27;88.73;101223.11;109035;277;38647;-74
2023/10/02 02:16:57;;;;;;;14.50;9.30;;;;;;;9.32;88.58;101225.98;109054;277;38270;-70
2023/10/02 02:19:48;;;;;;;11.20;8.10;;;;;;;9.36;88.75;101222.41;109069;276;38491;-72
2023/10/02 02:22:31;;;;;;;14.60;8.40;;;;;;;9.42;89.06;101225.09;109014;276;38640;-69
2023/10/02 02:25:12;;;;;;;12.80;8.10;;;;;;;9.49;89.36;101222.67;108989;276;39772;-72
2023/10/02 02:27:51;;;;;;;11.00;7.50;;;;;;;9.58;89.50;101222.16;109012;277;39981;-72
2023/10/02 02:30:25;;;;;;;11.50;8.00;;;;;;;9.66;89.75;101229.11;108977;276;38164;-73
2023/10/02 02:33:01;;;;;;;11.80;8.00;;;;;;;9.77;89.83;101229.76;108988;277;39364;-71
2023/10/02 02:35:44;;;;;;;13.60;7.80;;;;;;;9.87;89.90;101226.94;108975;277;38464;-72
2023/10/02 02:38:26;;;;;;;12.20;7.30;;;;;;;9.93;89.79;101231.86;109026;276;39339;-72
2023/10/02 02:41:08;;;;;;;13.10;7.40;;;;;;;10.00;89.98;101228.22;108954;277;39367;-70
2023/10/02 02:43:46;;;;;;;10.50;6.60;;;;;;;10.09;90.00;101230.13;108884;277;172685;-72
2023/10/02 02:46:33;;;;;;;14.70;8.10;;;;;;;10.16;90.07;101229.45;109043;276;38235;-70
2023/10/02 02:49:25;;;;;;;10.50;7.20;;;;;;;10.22;90.60;101230.34;109014;276;39406;-73
2023/10/02 02:52:04;;;;;;;12.60;7.50;;;;;;;10.33;90.78;101233.44;109009;276;38179;-70
2023/10/02 02:54:44;;;;;;;10.30;6.30;;;;;;;10.42;90.68;101236.89;109028;277;39424;-70
2023/10/02 02:57:26;;;;;;;16.50;7.80;;;;;;;10.47;90.30;101229.44;108608;276;615487;-73
2023/10/02 03:02:53;;;;;;;11.10;7.00;;;;;;;10.60;90.25;101231.23;109077;276;38758;-72
2023/10/02 03:05:38;;;;;;;10.40;7.20;;;;;;;10.65;90.22;101235.48;109050;276;39630;-70
2023/10/02 03:08:12;;;;;;;13.50;7.70;;;;;;;10.69;90.10;101234.66;109040;277;38402;-71
2023/10/02 03:10:57;;;;;;;9.60;6.80;;;;;;;10.74;90.02;101236.13;109014;277;38184;-71
2023/10/02 03:13:34;;;;;;;9.00;6.40;;;;;;;10.78;90.01;101231.48;108993;276;38064;-73
2023/10/02 03:16:17;;;;;;;11.10;6.50;;;;;;;10.81;89.87;101228.45;109089;277;38740;-73
2023/10/02 03:18:54;;;;;;;8.80;6.90;;;;;;;10.83;90.11;101228.55;109032;276;39358;-71
2023/10/02 03:21:31;;;;;;;11.00;6.30;;;;;;;10.88;90.08;101221.80;109008;276;39328;-73
2023/10/02 03:24:07;;;;;;;10.30;6.30;;;;;;;10.93;89.91;101225.15;108967;276;39363;-73
2023/10/02 03:26:44;;;;;;;10.20;6.50;;;;;;;10.96;89.99;101225.61;108936;276;39365;-70
2023/10/02 03:29:22;;;;;;;11.20;7.10;;;;;;;11.03;90.10;101224.21;108998;276;39613;-70
2023/10/02 03:31:57;;;;;;;13.10;6.30;;;;;;;11.07;89.97;101229.69;108981;276;38296;-70
2023/10/02 03:34:34;;;;;;;9.60;6.20;;;;;;;11.08;89.64;101227.56;108979;276;39790;-73
2023/10/02 03:37:14;;;;;;;9.40;6.40;;;;;;;11.11;89.73;101226.25;108996;276;38488;-70
2023/10/02 03:42:50;;;;;;;12.20;6.50;;;;;;;11.23;90.12;101222.48;109036;277;38337;-72
2023/10/02 03:45:38;;;;;;;9.70;7.00;;;;;;;11.26;90.00;101223.77;108950;278;38163;-72
2023/10/02 03:48:21;;;;;;;11.90;6.30;;;;;;;11.29;90.06;101221.77;108936;278;38157;-73
2023/10/02 03:51:03;;;;;;;8.00;6.20;;;;;;;11.32;89.98;101221.50;108951;278;38612;-73
2023/10/02 03:53:38;;;;;;;7.90;6.00;;;;;;;11.36;90.17;101218.77;108941;278;38253;-73
2023/10/02 03:59:06;;;;;;;9.00;5.80;;;;;;;11.34;90.14;101217.77;108951;278;39343;-71
2023/10/02 04:01:41;;;;;;;7.90;5.50;;;;;;;11.35;89.99;101217.22;108957;278;38294;-74
2023/10/02 04:04:24;;;;;;;8.70;5.10;;;;;;;11.33;89.44;101221.12;108858;278;38358;-74
2023/10/02 04:06:58;;;;;;;10.30;5.60;;;;;;;11.31;89.46;101221.18;108924;278;38323;-72
2023/10/02 04:09:36;;;;;;;8.60;5.90;;;;;;;11.31;89.42;101217.00;108913;278;38338;-71
2023/10/02 04:12:17;;;;;;;9.50;5.30;;;;;;;11.26;89.12;101207.17;108847;278;175370;-71
2023/10/02 04:14:57;;;;;;;8.30;5.80;;;;;;;11.21;88.88;101209.58;108901;278;39032;-71
2023/10/02 04:17:34;;;;;;;8.60;5.40;;;;;;;11.16;88.59;101213.58;108851;278;39449;-72
2023/10/02 04:20:27;;;;;;;7.40;5.70;;;;;;;11.12;88.61;101219.09;108916;278;38571;-70
2023/10/02 04:23:18;;;;;;;9.20;6.00;;;;;;;11.07;88.70;101224.10;108890;278;38831;-70
2023/10/02 04:25:53;;;;;;;11.40;6.10;;;;;;;11.02;88.82;101227.73;108851;278;40084;-72
2023/10/02 04:28:28;;;;;;;8.70;5.40;;;;;;;10.96;88.83;101219.14;108948;278;39359;-71
2023/10/02 04:31:06;;;;;;;8.10;6.00;;;;;;;10.90;88.57;101219.84;108921;278;38730;-70
2023/10/02 04:33:48;;;;;;;7.70;5.50;;;;;;;10.85;88.65;101225.55;108868;278;38356;-70
2023/10/02 04:36:34;;;;;;;10.50;5.80;;;;;;;10.79;88.34;101225.54;108897;278;39664;-70
2023/10/02 04:39:52;;;;;;;9.90;5.60;;;;;;;10.68;88.16;101223.19;108834;278;175361;-72
2023/10/02 04:42:14;;;;;;;;;;;;;;;10.58;88.21;101229.00;108956;278;38242;-72
2023/10/02 04:44:56;;;;;;;8.70;5.60;;;;;;;10.49;88.42;101233.42;109080;276;39325;-73
2023/10/02 04:47:32;;;;;;;13.40;5.90;;;;;;;10.46;88.63;101235.59;109072;277;38476;-71
2023/10/02 04:53:19;;;;;;;10.10;6.20;;;;;;;10.43;88.93;101229.54;108950;277;38496;-72
2023/10/02 04:56:21;;;;;;;10.80;5.80;;;;;;;10.42;89.06;101230.96;108900;276;175424;-71
2023/10/02 04:59:02;;;;;;;9.70;6.00;;;;;;;10.46;89.55;101231.76;108978;276;39523;-71
2023/10/02 05:01:41;;;;;;;9.70;5.90;;;;;;;10.55;90.12;101229.60;108966;276;38474;-72
2023/10/02 05:04:19;;;;;;;10.10;6.10;;;;;;;10.64;90.41;101228.00;109005;277;39039;-71
2023/10/02 05:06:55;;;;;;;8.30;5.60;;;;;;;10.72;90.69;101228.15;108960;277;38193;-71
2023/10/02 05:09:38;;;;;;;10.00;5.30;;;;;;;10.80;90.68;101229.16;108986;277;38226;-71
2023/10/02 05:12:22;;;;;;;11.20;5.90;;;;;;;10.84;90.25;101229.59;109051;277;38154;-70
2023/10/02 05:15:07;;;;;;;11.70;6.00;;;;;;;10.92;90.68;101235.15;109049;277;38719;-73
2023/10/02 05:17:46;;;;;;;10.00;6.50;;;;;;;10.99;90.75;101232.69;108996;276;39657;-73
2023/10/02 05:20:26;;;;;;;9.00;5.90;;;;;;;11.05;90.95;101236.90;109073;277;39412;-73
2023/10/02 05:23:06;;;;;;;8.60;5.50;;;;;;;11.13;91.08;101241.42;109138;276;38362;-73
2023/10/02 05:25:47;;;;;;;9.70;5.70;;;;;;;11.20;91.18;101245.06;109067;277;38286;-75
2023/10/02 05:28:22;;;;;;;11.10;5.40;;;;;;;11.28;91.16;101242.23;108975;277;41287;-74
2023/10/02 05:31:07;;;;;;;9.70;5.30;;;;;;;11.34;90.91;101242.77;109069;277;39228;-73
2023/10/02 05:33:43;;;;;;;10.50;6.10;;;;;;;11.42;90.99;101250.92;108999;277;38228;-72
2023/10/02 05:36:22;;;;;;;12.10;6.00;;;;;;;11.46;90.89;101251.70;109034;277;39399;-74
2023/10/02 05:39:28;;;;;;;8.80;5.40;;;;;;;11.51;90.87;101257.31;109067;276;38329;-73
2023/10/02 05:42:13;;;;;;;10.40;5.90;;;;;;;11.61;91.13;101260.18;108363;277;901626;-71
2023/10/02 05:44:50;;;;;;;10.10;5.60;;;;;;;11.73;91.29;101264.39;108976;276;38296;-70
2023/10/02 05:47:36;;;;;;;13.10;6.40;;;;;;;11.83;91.33;101267.63;109065;277;38385;-70
2023/10/02 05:50:12;;;;;;;12.10;5.50;;;;;;;11.93;91.25;101268.74;108975;277;39530;-71
2023/10/02 05:52:48;;;;;;;9.60;5.10;;;;;;;12.03;91.08;101271.07;109019;277;39413;-71
2023/10/02 05:55:25;;;;;;;8.90;4.90;;;;;;;12.14;91.04;101266.02;109023;276;38258;-72
2023/10/02 05:58:08;;;;;;;11.20;5.00;;;;;;;12.24;91.04;101267.46;108986;277;38760;-70
2023/10/02 06:01:01;;;;;;;12.60;6.10;;;;;;;12.32;90.71;101267.55;109026;276;38988;-71
2023/10/02 06:03:41;;;;;;;11.40;5.90;;;;;;;12.41;90.90;101268.54;109022;277;38225;-70
2023/10/02 06:06:21;;;;;;;9.50;5.40;;;;;;;12.49;90.75;101267.05;108998;277;38911;-71
2023/10/02 06:09:12;;;;;;;11.50;5.50;;;;;;;12.54;90.35;101265.83;109011;276;38419;-72
2023/10/02 06:12:02;;;;;;;8.40;5.80;;;;;;;12.61;90.09;101266.14;109013;276;38172;-70
2023/10/02 06:14:42;;;;;;;9.90;5.80;;;;;;;12.69;90.05;101271.12;109012;277;38296;-70
2023/10/02 06:17:17;;;;;;;9.60;6.10;;;;;;;12.76;90.04;101268.99;108997;276;38446;-70
2023/10/02 06:19:54;;;;;;;11.60;6.00;;;;;;;12.80;89.74;101268.65;109029;277;38234;-71
2023/10/02 06:22:28;;;;;;;10.10;4.90;;;;;;;12.86;89.46;101271.08;109015;277;39329;-71
2023/10/02 06:25:17;;;;;;;10.20;5.60;;;;;;;12.91;89.29;101270.23;109066;277;38206;-71
2023/10/02 06:28:19;;;;;;;11.90;5.40;;;;;;;12.96;89.11;101270.95;109011;276;39100;-71
2023/10/02 06:30:54;;;;;;;9.50;6.30;;;;;;;13.02;88.99;101270.95;109049;277;38333;-71
2023/10/02 06:33:28;;;;;;;12.00;5.90;;;;;;;13.05;88.96;101267.48;108978;277;39738;-72
2023/10/02 06:36:09;;;;;;;10.60;5.30;;;;;;;13.12;88.84;101270.92;109020;276;38228;-71
2023/10/02 06:38:54;;;;;;;11.80;5.30;;;;;;;13.19;88.86;101269.96;109011;276;38298;-71
2023/10/02 06:41:30;;;;;;;10.60;5.50;;;;;;;13.28;89.03;101267.59;109062;276;38457;-70
2023/10/02 06:44:15;;;;;;;11.50;5.90;;;;;;;13.38;88.88;101270.20;109014;276;38500;-71
2023/10/02 06:46:57;;;;;;;14.30;6.20;;;;;;;13.47;89.00;101277.29;108995;276;38314;-71
2023/10/02 06:49:33;;;;;;;11.00;5.60;;;;;;;13.54;88.84;101270.17;108990;277;38220;-70
2023/10/02 06:52:17;;;;;;;11.90;5.80;;;;;;;13.65;88.67;101268.37;108935;276;172514;-70
2023/10/02 06:54:56;;;;;;;13.10;5.50;;;;;;;13.80;88.37;101268.91;108996;276;38131;-70
2023/10/02 06:57:36;;;;;;;13.90;5.50;;;;;;;13.92;88.35;101265.47;109054;277;38773;-71
2023/10/02 07:00:23;;;;;;;12.10;6.00;;;;;;;14.04;88.02;101263.60;109060;276;38562;-71
2023/10/02 07:03:08;;;;;;;13.50;5.60;;;;;;;14.15;87.60;101259.84;109053;276;38222;-71
2023/10/02 07:05:45;;;;;;;9.40;5.20;;;;;;;14.25;86.99;101262.60;109033;276;38574;-71
2023/10/02 07:08:22;;;;;;;7.70;4.90;;;;;;;14.35;86.97;101264.32;109053;277;38466;-72
2023/10/02 07:10:58;;;;;;;11.40;5.40;;;;;;;14.46;86.78;101265.30;109080;276;41133;-71
2023/10/02 07:13:36;;;;;;;11.50;5.30;;;;;;;14.56;86.45;101261.25;108957;276;38263;-71
2023/10/02 07:16:17;;;;;;;10.70;5.00;;;;;;;14.65;86.27;101259.62;109009;276;38408;-71
2023/10/02 07:19:02;;;;;;;10.60;5.20;;;;;;;14.77;85.80;101257.58;108986;276;38193;-72
2023/10/02 07:21:40;;;;;;;10.90;5.30;;;;;;;14.88;85.48;101263.24;108990;276;38288;-72
2023/10/02 07:24:28;;;;;;;9.30;4.90;;;;;;;15.01;85.49;101261.66;109011;276;38545;-72
2023/10/02 07:27:02;;;;;;;12.10;5.90;;;;;;;15.11;85.14;101263.87;108921;276;39302;-71
2023/10/02 07:29:39;;;;;;;11.00;5.20;;;;;;;15.20;84.63;101260.68;108957;276;39783;-70
2023/10/02 07:32:13;;;;;;;13.50;5.50;;;;;;;15.29;84.40;101261.19;109018;277;38606;-72
2023/10/02 07:34:48;;;;;;;10.60;5.00;;;;;;;15.39;84.10;101255.61;109026;276;40657;-71
2023/10/02 07:37:24;;;;;;;8.00;5.00;;;;;;;15.50;83.81;101243.52;108963;276;38258;-72
2023/10/02 07:40:02;;;;;;;15.00;5.50;;;;;;;15.64;83.07;101245.21;108973;277;39291;-74
2023/10/02 07:42:39;;;;;;;8.40;4.60;;;;;;;15.73;82.77;101250.61;109013;276;38140;-71
2023/10/02 07:45:25;;;;;;;11.70;5.80;;;;;;;15.84;82.59;101256.13;109013;269;38152;-71
2023/10/02 07:48:13;;;;;;;12.40;5.00;;;;;;;15.95;82.40;101259.30;109090;276;38284;-72
2023/10/02 07:50:49;;;;;;;10.90;5.10;;;;;;;16.11;82.21;101260.83;109061;277;38294;-73
2023/10/02 07:53:40;;;;;;;12.40;5.10;;;;;;;16.29;81.73;101260.14;109026;276;38600;-73
2023/10/02 07:56:24;;;;;;;11.90;5.50;;;;;;;16.49;80.97;101255.85;109053;276;38229;-71
2023/10/02 07:59:09;;;;;;;11.30;5.10;;;;;;;16.74;81.65;101252.90;109061;276;38220;-72
2023/10/02 08:01:47;;;;;;;11.90;4.60;;;;;;;17.05;81.36;101251.87;109030;276;38176;-71
2023/10/02 08:04:45;;;;;;;11.40;5.80;;;;;;;17.29;79.21;101250.13;109055;276;38164;-72
2023/10/02 08:07:25;;;;;;;10.40;5.00;;;;;;;17.40;78.27;101248.24;108973;277;39613;-73
2023/10/02 08:10:08;;;;;;;8.00;4.30;;;;;;;17.52;77.23;101245.33;109049;277;38696;-72
2023/10/02 08:12:55;;;;;;;12.90;4.30;;;;;;;17.60;76.23;101247.41;108957;277;38580;-72
2023/10/02 08:15:32;;;;;;;10.60;4.90;;;;;;;17.70;75.78;101254.27;108959;277;38372;-72
2023/10/02 08:18:16;;;;;;;9.80;4.50;;;;;;;17.82;75.60;101254.55;108912;277;38264;-71
2023/10/02 08:20:55;;;;;;;11.60;5.20;;;;;;;17.94;74.93;101259.03;108938;277;38868;-72
2023/10/02 08:23:31;;;;;;;11.30;5.20;;;;;;;17.99;74.03;101257.14;109015;277;38737;-72
2023/10/02 08:26:07;;;;;;;10.40;4.90;;;;;;;18.01;73.88;101260.00;108973;277;38177;-72
2023/10/02 08:28:48;;;;;;;9.70;5.50;;;;;;;18.07;73.15;101261.52;108955;277;40893;-72
2023/10/02 08:31:27;;;;;;;9.30;5.10;;;;;;;18.12;72.79;101257.85;108981;277;38424;-71
2023/10/02 08:34:05;;;;;;;9.00;4.50;;;;;;;18.16;72.68;101263.61;108963;277;38770;-71
2023/10/02 08:36:42;;;;;;;11.00;5.40;;;;;;;18.24;72.53;101266.73;108983;277;38474;-72
2023/10/02 08:39:22;;;;;;;13.30;5.40;;;;;;;18.30;71.76;101262.29;109010;277;38465;-74
2023/10/02 08:42:09;;;;;;;12.40;5.50;;;;;;;18.39;71.21;101265.70;109043;277;39326;-73
2023/10/02 08:44:49;;;;;;;9.30;4.70;;;;;;;18.44;71.01;101266.11;108969;277;174639;-71
2023/10/02 08:47:25;;;;;;;12.10;4.90;;;;;;;18.52;70.82;101268.83;109040;277;38473;-71
2023/10/02 08:50:04;;;;;;;12.00;5.40;;;;;;;18.59;70.32;101269.00;108982;277;38729;-72
2023/10/02 08:52:47;;;;;;;12.50;4.90;;;;;;;18.65;69.98;101272.33;109061;277;38701;-71
2023/10/02 08:55:40;;;;;;;12.00;4.70;;;;;;;18.69;68.87;101268.27;109054;277;38904;-71
2023/10/02 08:58:19;;;;;;;7.00;4.20;;;;;;;18.72;68.55;101266.66;109023;277;38219;-71
2023/10/02 09:01:17;;;;;;;12.60;4.70;;;;;;;18.75;67.99;101262.61;109028;277;38154;-72
2023/10/02 09:04:21;;;;;;;9.90;5.20;;;;;;;18.80;67.77;101261.63;109034;277;38320;-73
2023/10/02 09:07:14;;;;;;;10.10;4.80;;;;;;;18.91;68.17;101260.98;108985;277;38236;-72
2023/10/02 09:09:55;;;;;;;10.00;4.80;;;;;;;19.03;68.03;101260.05;108944;277;38293;-72
2023/10/02 09:12:29;;;;;;;11.70;4.40;;;;;;;19.15;67.56;101260.95;108942;277;38393;-71
2023/10/02 09:15:24;;;;;;;9.60;4.60;;;;;;;19.27;67.34;101264.48;108940;277;39771;-72
2023/10/02 09:17:58;;;;;;;9.70;5.00;;;;;;;19.39;66.66;101260.02;108963;277;38129;-74
2023/10/02 09:20:39;;;;;;;11.80;4.80;;;;;;;19.54;66.12;101255.59;108888;276;39118;-72
2023/10/02 09:23:14;;;;;;;11.50;4.70;;;;;;;19.72;65.97;101250.45;108954;277;38440;-72
2023/10/02 09:26:17;;;;;;;9.40;4.60;;;;;;;19.89;65.62;101246.17;108996;277;39816;-72
2023/10/02 09:29:04;;;;;;;7.00;4.10;;;;;;;20.11;65.39;101244.22;108958;276;38464;-73
2023/10/02 09:31:42;;;;;;;7.50;3.40;;;;;;;20.32;64.55;101244.82;108889;277;171793;-72
2023/10/02 09:34:21;;;;;;;9.60;4.40;;;;;;;20.56;63.12;101248.80;108946;277;38762;-72
2023/10/02 09:36:57;;;;;;;8.20;3.90;;;;;;;20.77;62.67;101242.41;108971;277;38721;-73
2023/10/02 09:39:38;;;;;;;10.70;4.00;;;;;;;21.03;61.82;101239.09;108917;276;174790;-73
2023/10/02 09:42:15;;;;;;;9.30;3.50;;;;;;;21.21;61.01;101235.02;109067;277;38722;-73
2023/10/02 09:44:50;;;;;;;6.50;3.50;;;;;;;21.32;60.26;101232.35;109019;277;39379;-73
2023/10/02 09:47:31;;;;;;;6.50;3.70;;;;;;;21.41;59.71;101230.66;109079;273;38984;-71
2023/10/02 09:50:29;;;;;;;6.70;3.70;;;;;;;21.60;59.74;101228.07;108927;277;39810;-74
2023/10/02 09:53:34;;;;;;;7.10;3.50;;;;;;;21.84;58.49;101230.23;108902;277;38366;-74
2023/10/02 09:56:32;;;;;;;8.50;3.40;;;;;;;21.90;57.12;101228.24;108924;277;38266;-73
2023/10/02 09:59:17;;;;;;;7.10;3.20;;;;;;;21.82;57.08;101227.23;108873;277;38535;-72
2023/10/02 10:05:53;;;;;;;9.10;2.90;;;;;;;21.64;56.51;101220.86;108956;277;38324;-73
2023/10/02 10:09:18;;;;;;;5.40;2.90;;;;;;;21.53;55.84;101222.70;108912;277;38496;-72
2023/10/02 10:12:50;;;;;;;7.90;3.00;;;;;;;21.42;55.85;101225.78;108927;277;38170;-72
2023/10/02 10:15:36;;;;;;;9.10;3.50;;;;;;;21.33;55.81;101225.36;108909;277;38508;-74
2023/10/02 10:18:17;;;;;;;7.00;3.10;;;;;;;21.28;56.09;101223.34;108980;276;39299;-73
2023/10/02 10:20:58;;;;;;;8.10;3.20;;;;;;;21.25;55.92;101219.48;109015;276;38489;-73
2023/10/02 10:23:34;;;;;;;6.70;3.10;;;;;;;21.23;55.88;101213.08;109036;277;38262;-73
2023/10/02 10:26:12;;;;;;;6.90;3.00;;;;;;;21.21;55.44;101208.94;108963;277;38424;-73
2023/10/02 10:28:53;;;;;;;8.30;2.80;;;;;;;21.20;55.96;101207.20;109013;277;38300;-72
2023/10/02 10:31:39;;;;;;;6.60;3.00;;;;;;;21.21;55.77;101199.36;109032;276;38843;-73
2023/10/02 10:34:36;;;;;;;6.40;3.00;;;;;;;21.22;55.49;101194.33;109044;276;38204;-73
2023/10/02 10:37:39;;;;;;;5.90;3.00;;;;;;;21.23;54.90;101198.86;109049;277;38182;-71
2023/10/02 10:40:43;;;;;;;8.10;2.60;;;;;;;21.20;54.00;101196.91;109083;276;37927;-73
2023/10/02 10:43:21;;;;;;;4.90;2.50;;;;;;;21.18;53.86;101195.45;108998;277;38548;-73
2023/10/02 10:45:56;;;;;;;6.60;2.70;;;;;;;21.18;53.85;101193.88;109005;278;38561;-73
2023/10/02 10:48:33;;;;;;;4.70;2.60;;;;;;;21.18;54.00;101193.70;108936;278;38465;-72
2023/10/02 10:51:20;;;;;;;4.90;2.70;;;;;;;21.20;54.21;101194.44;108727;270;176825;-72
2023/10/02 10:54:00;;;;;;;8.00;3.10;;;;;;;21.21;53.89;101190.83;108908;278;41075;-72
2023/10/02 10:56:34;;;;;;;5.70;2.50;;;;;;;21.22;53.51;101184.35;108342;278;820713;-73
2023/10/02 10:59:15;;;;;;;3.80;2.40;;;;;;;21.22;53.16;101185.07;108920;278;38162;-72
2023/10/02 11:02:09;;;;;;;7.40;2.60;;;;;;;21.21;52.53;101185.90;108879;278;38753;-72
2023/10/02 11:04:49;;;;;;;4.30;2.40;;;;;;;21.17;52.57;101182.23;108877;278;39202;-72
2023/10/02 11:07:26;;;;;;;8.10;3.00;;;;;;;21.18;53.00;101179.86;108945;278;38263;-73
2023/10/02 11:10:16;;;;;;;5.70;2.50;;;;;;;21.22;52.65;101178.69;108841;278;172112;-73
2023/10/02 11:12:56;;;;;;;5.80;3.00;;;;;;;21.28;52.23;101177.53;108920;278;38803;-71
2023/10/02 11:15:48;;;;;;;5.30;2.60;;;;;;;21.34;51.99;101174.32;108928;278;38670;-72
2023/10/02 11:18:26;;;;;;;7.20;2.90;;;;;;;21.43;52.00;101169.30;108893;278;38134;-71
2023/10/02 11:21:02;;;;;;;6.60;2.70;;;;;;;21.50;51.93;101164.11;108930;278;39387;-72
2023/10/02 11:23:39;;;;;;;5.90;2.50;;;;;;;21.58;51.93;101157.35;108925;278;38022;-73
2023/10/02 11:26:15;;;;;;;5.00;2.50;;;;;;;21.63;51.60;101149.51;108920;278;38169;-71
2023/10/02 11:28:52;;;;;;;6.70;3.00;;;;;;;21.67;51.67;101150.30;108924;278;39440;-71
2023/10/02 11:31:33;;;;;;;6.40;2.80;;;;;;;21.69;51.17;101152.48;108967;278;38128;-71
2023/10/02 11:34:11;;;;;;;5.40;2.80;;;;;;;21.68;51.17;101147.21;108991;278;38376;-71
2023/10/02 11:36:52;;;;;;;5.20;2.90;;;;;;;21.67;50.84;101154.92;108835;278;174560;-74
2023/10/02 11:39:27;;;;;;;6.20;2.70;;;;;;;21.66;50.25;101156.44;108966;278;38262;-74
2023/10/02 11:42:06;;;;;;;4.40;2.40;;;;;;;21.61;49.56;101157.30;108926;278;38250;-73
2023/10/02 11:44:41;;;;;;;5.10;2.60;;;;;;;21.57;50.15;101155.27;108912;277;38360;-73
2023/10/02 11:47:28;;;;;;;5.20;2.80;;;;;;;21.57;49.94;101151.02;109000;276;38549;-74
2023/10/02 11:50:07;;;;;;;5.80;2.50;;;;;;;21.55;49.57;101147.23;108995;277;38389;-73
2023/10/02 11:52:42;;;;;;;6.00;2.90;;;;;;;21.54;49.64;101143.23;108956;276;38729;-74
2023/10/02 11:55:20;;;;;;;4.90;2.90;;;;;;;21.53;50.09;101145.10;108928;277;38336;-72
2023/10/02 11:57:54;;;;;;;5.50;2.90;;;;;;;21.54;50.06;101142.91;108954;277;39318;-72
2023/10/02 12:00:29;;;;;;;5.20;2.80;;;;;;;21.54;50.10;101138.80;108965;276;38535;-72
2023/10/02 12:03:04;;;;;;;6.80;2.50;;;;;;;21.54;49.81;101141.30;108888;277;41902;-71
2023/10/02 12:05:40;;;;;;;6.70;2.80;;;;;;;21.53;49.89;101138.35;108992;276;39418;-73
2023/10/02 12:08:20;;;;;;;5.20;2.60;;;;;;;21.52;50.37;101138.60;108985;277;39913;-72
2023/10/02 12:11:03;;;;;;;9.40;2.70;;;;;;;21.53;50.36;101135.89;109011;276;38179;-73
2023/10/02 12:13:42;;;;;;;6.00;2.90;;;;;;;21.53;50.45;101134.85;108919;277;38737;-73
2023/10/02 12:16:17;;;;;;;4.30;2.40;;;;;;;21.53;50.27;101133.18;109051;277;38601;-71
2023/10/02 12:18:55;;;;;;;4.10;2.60;;;;;;;21.53;49.95;101129.16;108363;276;893332;-72
2023/10/02 12:21:33;;;;;;;5.80;3.00;;;;;;;21.50;50.06;101128.26;109024;277;39566;-72
2023/10/02 12:24:14;;;;;;;6.60;2.60;;;;;;;21.49;49.83;101120.20;109007;277;38273;-73
2023/10/02 12:26:53;;;;;;;7.00;2.60;;;;;;;21.48;50.25;101116.88;108976;277;38778;-72
2023/10/02 12:29:27;;;;;;;5.00;2.80;;;;;;;21.49;50.52;101115.58;108912;277;40083;-72
2023/10/02 12:32:01;;;;;;;5.50;2.70;;;;;;;21.51;50.85;101111.68;108941;277;38404;-72
2023/10/02 12:34:38;;;;;;;5.30;2.80;;;;;;;21.52;50.60;101110.73;108936;277;39615;-73
2023/10/02 12:37:18;;;;;;;6.90;2.70;;;;;;;21.52;50.65;101107.04;109015;277;38427;-71
2023/10/02 12:39:56;;;;;;;4.90;2.80;;;;;;;21.48;50.44;101102.86;108949;277;38163;-70
2023/10/02 12:42:40;;;;;;;6.10;2.60;;;;;;;21.42;50.32;101106.14;109025;277;38141;-73
2023/10/02 12:45:20;;;;;;;5.90;2.80;;;;;;;21.36;50.55;101104.23;109042;277;38876;-73